Time;durP1;ratioP1;P1;durP2;ratioP2;P2;SDS_P1;SDS_P2;PMS_P1;PMS_P2;Temp;Humidity;BMP_temperature;BMP_pressure;BME280_temperature;BME280_humidity;BME280_pressure;Samples;Min_cycle;Max_cycle;Signal;HPM_P1;HPM_P2
2021/06/10 00:00:43;;;;;;;;;;;;;;;;;;5098416;27;20277;-80
2021/06/10 00:03:09;;;;;;;;;;;;;;;;;;5133970;27;19911;-82
2021/06/10 00:05:35;;;;;;;;;;;;;;;;;;5133950;27;19903;-83
2021/06/10 00:08:01;;;;;;;;;;;;;;;;;;5133541;27;19937;-82
2021/06/10 00:10:27;;;;;;;;;;;;;;;;;;5133918;28;19908;-83
2021/06/10 00:12:53;;;;;;;;;;;;;;;;;;5133769;28;19904;-80
2021/06/10 00:15:19;;;;;;;;;;;;;;;;;;5133798;28;19903;-79
2021/06/10 00:17:45;;;;;;;;;;;;;;;;;;5133614;28;19926;-79
2021/06/10 00:20:11;;;;;;;;;;;;;;;;;;5133698;28;19950;-79
2021/06/10 00:22:37;;;;;;;;;;;;;;;;;;5133737;28;20371;-80
2021/06/10 00:25:03;;;;;;;;;;;;;;;;;;5133500;28;19943;-81
2021/06/10 00:27:29;;;;;;;;;;;;;;;;;;5133656;28;19914;-81
2021/06/10 00:29:58;;;;;;;;;;;;;;;;;;5115293;28;19956;-85
2021/06/10 00:32:24;;;;;;;;;;;;;;;;;;5117891;27;19903;-81
2021/06/10 00:34:53;;;;;;;;;;;;;;;;;;5119279;27;19911;-84
2021/06/10 00:37:19;;;;;;;;;;;;;;;;;;5119456;27;20028;-79
2021/06/10 00:39:45;;;;;;;;;;;;;;;;;;5137979;27;20379;-81
2021/06/10 00:42:11;;;;;;;;;;;;;;;;;;5137509;27;20255;-82
2021/06/10 00:44:37;;;;;;;;;;;;;;;;;;5119273;27;19904;-80
2021/06/10 00:47:03;;;;;;;;;;;;;;;;;;5137340;27;20350;-82
2021/06/10 00:49:29;;;;;;;;;;;;;;;;;;5137628;27;20283;-81
2021/06/10 00:51:55;;;;;;;;;;;;;;;;;;5137521;27;19907;-82
2021/06/10 00:54:21;;;;;;;;;;;;;;;;;;5137490;27;19903;-79
2021/06/10 00:56:47;;;;;;;;;;;;;;;;;;5137297;27;19964;-82
2021/06/10 00:59:13;;;;;;;;;;;;;;;;;;5137267;27;19903;-82
2021/06/10 01:01:39;;;;;;;;;;;;;;;;;;5137335;27;19915;-82
2021/06/10 01:04:05;;;;;;;;;;;;;;;;;;5137251;27;20357;-79
2021/06/10 01:06:31;;;;;;;;;;;;;;;;;;5137217;27;20273;-81
2021/06/10 01:08:57;;;;;;;;;;;;;;;;;;5118780;27;19907;-82
2021/06/10 01:11:23;;;;;;;;;;;;;;;;;;5136878;27;20369;-83
2021/06/10 01:13:49;;;;;;;;;;;;;;;;;;5137237;27;19904;-82
2021/06/10 01:16:15;;;;;;;;;;;;;;;;;;5136849;27;19903;-84
2021/06/10 01:18:41;;;;;;;;;;;;;;;;;;5137048;27;19903;-81
2021/06/10 01:21:07;;;;;;;;;;;;;;;;;;5136784;27;19904;-79
2021/06/10 01:23:33;;;;;;;;;;;;;;;;;;5137024;27;19903;-81
2021/06/10 01:25:59;;;;;;;;;;;;;;;;;;5136923;27;19903;-80
2021/06/10 01:28:25;;;;;;;;;;;;;;;;;;5136607;27;20354;-81
2021/06/10 01:30:51;;;;;;;;;;;;;;;;;;5136969;27;20277;-83
2021/06/10 01:33:17;;;;;;;;;;;;;;;;;;5136900;27;19985;-78
2021/06/10 01:35:43;;;;;;;;;;;;;;;;;;5136699;27;19939;-82
2021/06/10 01:38:09;;;;;;;;;;;;;;;;;;5136703;27;20416;-82
2021/06/10 01:40:35;;;;;;;;;;;;;;;;;;5136356;27;20350;-81
2021/06/10 01:43:01;;;;;;;;;;;;;;;;;;5135236;27;20282;-79
2021/06/10 01:45:27;;;;;;;;;;;;;;;;;;5136279;27;19999;-80
2021/06/10 01:47:53;;;;;;;;;;;;;;;;;;5136464;27;19908;-81
2021/06/10 01:50:20;;;;;;;;;;;;;;;;;;5136511;27;19908;-81
2021/06/10 01:52:46;;;;;;;;;;;;;;;;;;5136167;27;20282;-83
2021/06/10 01:55:12;;;;;;;;;;;;;;;;;;5136426;27;20365;-80
2021/06/10 01:57:38;;;;;;;;;;;;;;;;;;5135933;27;19916;-81
2021/06/10 02:00:04;;;;;;;;;;;;;;;;;;5136158;27;19942;-81
2021/06/10 02:02:30;;;;;;;;;;;;;;;;;;5136053;27;19903;-82
2021/06/10 02:04:56;;;;;;;;;;;;;;;;;;5136207;27;19907;-80
2021/06/10 02:07:22;;;;;;;;;;;;;;;;;;5136055;27;19908;-82
2021/06/10 02:09:48;;;;;;;;;;;;;;;;;;5135835;27;19913;-81
2021/06/10 02:12:14;;;;;;;;;;;;;;;;;;5135996;27;19999;-78
2021/06/10 02:14:40;;;;;;;;;;;;;;;;;;5135560;27;19935;-78
2021/06/10 02:17:06;;;;;;;;;;;;;;;;;;5135926;27;19907;-81
2021/06/10 02:19:31;;;;;;;;;;;;;;;;;;5135748;27;19903;-82
2021/06/10 02:21:57;;;;;;;;;;;;;;;;;;5135799;27;19903;-79
2021/06/10 02:24:23;;;;;;;;;;;;;;;;;;5135499;27;19950;-80
2021/06/10 02:26:49;;;;;;;;;;;;;;;;;;5135572;27;20408;-82
2021/06/10 02:29:15;;;;;;;;;;;;;;;;;;5135630;27;20022;-81
2021/06/10 02:31:41;;;;;;;;;;;;;;;;;;5135406;27;19910;-80
2021/06/10 02:34:07;;;;;;;;;;;;;;;;;;5135637;27;19925;-81
2021/06/10 02:36:33;;;;;;;;;;;;;;;;;;5135585;27;19910;-83
2021/06/10 02:38:59;;;;;;;;;;;;;;;;;;5135301;27;19903;-79
2021/06/10 02:41:25;;;;;;;;;;;;;;;;;;5135385;27;20366;-80
2021/06/10 02:43:51;;;;;;;;;;;;;;;;;;5135128;27;20397;-79
2021/06/10 02:46:17;;;;;;;;;;;;;;;;;;5135375;27;20388;-81
2021/06/10 02:48:43;;;;;;;;;;;;;;;;;;5135098;27;19918;-80
2021/06/10 02:51:09;;;;;;;;;;;;;;;;;;5135188;27;19904;-81
2021/06/10 02:53:35;;;;;;;;;;;;;;;;;;5135121;27;19903;-82
2021/06/10 02:56:01;;;;;;;;;;;;;;;;;;5134403;27;19922;-79
2021/06/10 02:58:27;;;;;;;;;;;;;;;;;;5134944;27;19917;-79
2021/06/10 03:00:53;;;;;;;;;;;;;;;;;;5134860;27;19952;-79
2021/06/10 03:03:19;;;;;;;;;;;;;;;;;;5135009;27;20269;-80
2021/06/10 03:05:45;;;;;;;;;;;;;;;;;;5135032;27;19903;-83
2021/06/10 03:08:11;;;;;;;;;;;;;;;;;;5134684;27;19914;-80
2021/06/10 03:10:37;;;;;;;;;;;;;;;;;;5134807;27;19948;-80
2021/06/10 03:13:03;;;;;;;;;;;;;;;;;;5134592;27;19907;-78
2021/06/10 03:15:29;;;;;;;;;;;;;;;;;;5134866;27;19915;-78
2021/06/10 03:17:55;;;;;;;;;;;;;;;;;;5134738;27;19910;-80
2021/06/10 03:20:21;;;;;;;;;;;;;;;;;;5134577;27;19904;-80
2021/06/10 03:22:47;;;;;;;;;;;;;;;;;;5134758;27;20377;-80
2021/06/10 03:25:13;;;;;;;;;;;;;;;;;;5134351;27;20372;-80
2021/06/10 03:27:39;;;;;;;;;;;;;;;;;;5134414;27;20401;-83
2021/06/10 03:30:04;;;;;;;;;;;;;;;;;;5134404;27;20421;-83
2021/06/10 03:32:30;;;;;;;;;;;;;;;;;;5134468;27;19908;-79
2021/06/10 03:34:56;;;;;;;;;;;;;;;;;;5134428;27;19910;-80
2021/06/10 03:37:22;;;;;;;;;;;;;;;;;;5134157;27;19939;-78
2021/06/10 03:39:48;;;;;;;;;;;;;;;;;;5134314;27;19949;-82
2021/06/10 03:42:14;;;;;;;;;;;;;;;;;;5134055;27;19907;-81
2021/06/10 03:44:40;;;;;;;;;;;;;;;;;;5134258;27;19947;-82
2021/06/10 03:47:06;;;;;;;;;;;;;;;;;;5133996;27;19914;-80
2021/06/10 03:49:32;;;;;;;;;;;;;;;;;;5134089;27;20002;-80
2021/06/10 03:51:58;;;;;;;;;;;;;;;;;;5116067;27;20273;-81
2021/06/10 03:54:24;;;;;;;;;;;;;;;;;;5115141;27;19903;-80
2021/06/10 03:56:50;;;;;;;;;;;;;;;;;;5133967;27;19920;-83
2021/06/10 03:59:16;;;;;;;;;;;;;;;;;;5133843;27;19907;-82
2021/06/10 04:01:42;;;;;;;;;;;;;;;;;;5115650;27;19911;-83
2021/06/10 04:04:08;;;;;;;;;;;;;;;;;;5133984;27;19907;-79
2021/06/10 04:06:37;;;;;;;;;;;;;;;;;;5114556;28;19910;-78
2021/06/10 04:09:03;;;;;;;;;;;;;;;;;;5133760;27;19907;-79
2021/06/10 04:11:29;;;;;;;;;;;;;;;;;;5133713;27;19908;-82
2021/06/10 04:13:55;;;;;;;;;;;;;;;;;;5134097;28;19903;-78
2021/06/10 04:16:21;;;;;;;;;;;;;;;;;;5133628;28;19904;-80
2021/06/10 04:18:46;;;;;;;;;;;;;;;;;;5133614;28;20005;-81
2021/06/10 04:21:12;;;;;;;;;;;;;;;;;;5133879;28;20365;-79
2021/06/10 04:23:38;;;;;;;;;;;;;;;;;;5133603;28;20346;-80
2021/06/10 04:26:04;;;;;;;;;;;;;;;;;;5133743;28;20421;-82
2021/06/10 04:28:30;;;;;;;;;;;;;;;;;;5133168;28;19907;-81
2021/06/10 04:30:56;;;;;;;;;;;;;;;;;;5133736;28;19914;-82
2021/06/10 04:33:22;;;;;;;;;;;;;;;;;;5133687;28;19907;-78
2021/06/10 04:35:48;;;;;;;;;;;;;;;;;;5133346;28;19914;-79
2021/06/10 04:38:15;;;;;;;;;;;;;;;;;;5133514;28;19997;-82
2021/06/10 04:40:41;;;;;;;;;;;;;;;;;;5133459;28;19907;-82
2021/06/10 04:43:07;;;;;;;;;;;;;;;;;;5133528;28;19907;-83
2021/06/10 04:45:32;;;;;;;;;;;;;;;;;;5133387;28;19946;-80
2021/06/10 04:47:58;;;;;;;;;;;;;;;;;;5133462;28;19914;-78
2021/06/10 04:50:26;;;;;;;;;;;;;;;;;;5133655;28;19908;-80
2021/06/10 04:52:52;;;;;;;;;;;;;;;;;;5133236;28;19935;-82
2021/06/10 04:55:19;;;;;;;;;;;;;;;;;;5133235;28;19910;-79
2021/06/10 04:57:45;;;;;;;;;;;;;;;;;;5133153;28;19915;-78
2021/06/10 05:00:11;;;;;;;;;;;;;;;;;;5133441;28;20287;-78
2021/06/10 05:02:37;;;;;;;;;;;;;;;;;;5133039;28;20434;-80
2021/06/10 05:05:03;;;;;;;;;;;;;;;;;;5133318;28;20274;-83
2021/06/10 05:07:29;;;;;;;;;;;;;;;;;;5133009;28;19907;-81
2021/06/10 05:09:55;;;;;;;;;;;;;;;;;;5133199;28;20286;-81
2021/06/10 05:12:21;;;;;;;;;;;;;;;;;;5133394;28;19914;-80
2021/06/10 05:14:47;;;;;;;;;;;;;;;;;;5127240;28;20377;-76
2021/06/10 05:17:13;;;;;;;;;;;;;;;;;;5120832;27;20419;-83
2021/06/10 05:19:39;;;;;;;;;;;;;;;;;;5099408;27;19922;-81
2021/06/10 05:22:05;;;;;;;;;;;;;;;;;;5098740;27;19960;-83
2021/06/10 05:24:34;;;;;;;;;;;;;;;;;;5119507;27;19920;-79
2021/06/10 05:27:00;;;;;;;;;;;;;;;;;;5115662;27;19991;-81
2021/06/10 05:29:26;;;;;;;;;;;;;;;;;;5115371;27;19998;-82
2021/06/10 05:31:52;;;;;;;;;;;;;;;;;;5113025;27;19908;-81
2021/06/10 05:34:18;;;;;;;;;;;;;;;;;;5119814;27;20358;-80
2021/06/10 05:36:43;;;;;;;;;;;;;;;;;;5120932;27;19920;-78
2021/06/10 05:39:09;;;;;;;;;;;;;;;;;;5127949;27;19904;-80
2021/06/10 05:41:35;;;;;;;;;;;;;;;;;;5135776;27;19928;-78
2021/06/10 05:44:01;;;;;;;;;;;;;;;;;;5135096;27;20306;-80
2021/06/10 05:46:27;;;;;;;;;;;;;;;;;;5097185;28;19908;-79
2021/06/10 05:48:53;;;;;;;;;;;;;;;;;;5115934;28;20362;-79
2021/06/10 05:51:20;;;;;;;;;;;;;;;;;;5115845;28;20282;-78
2021/06/10 05:53:46;;;;;;;;;;;;;;;;;;5097276;28;20290;-77
2021/06/10 05:56:12;;;;;;;;;;;;;;;;;;5114953;28;19911;-80
2021/06/10 05:58:38;;;;;;;;;;;;;;;;;;5117806;27;20004;-81
2021/06/10 06:01:04;;;;;;;;;;;;;;;;;;5122682;27;19912;-80
2021/06/10 06:03:30;;;;;;;;;;;;;;;;;;5109518;27;19922;-83
2021/06/10 06:05:56;;;;;;;;;;;;;;;;;;5115370;28;19910;-80
2021/06/10 06:08:22;;;;;;;;;;;;;;;;;;5115402;28;20009;-84
2021/06/10 06:10:51;;;;;;;;;;;;;;;;;;5114891;28;20346;-79
2021/06/10 06:13:20;;;;;;;;;;;;;;;;;;5115214;28;19911;-78
2021/06/10 06:15:47;;;;;;;;;;;;;;;;;;5115379;28;19915;-78
2021/06/10 06:18:13;;;;;;;;;;;;;;;;;;5115191;28;19972;-85
2021/06/10 06:20:39;;;;;;;;;;;;;;;;;;5118284;27;20365;-83
2021/06/10 06:23:04;;;;;;;;;;;;;;;;;;5103902;27;20396;-80
2021/06/10 06:25:30;;;;;;;;;;;;;;;;;;5119473;27;19911;-83
2021/06/10 06:27:56;;;;;;;;;;;;;;;;;;5135750;27;19919;-77
2021/06/10 06:30:22;;;;;;;;;;;;;;;;;;5124973;27;19916;-77
2021/06/10 06:32:48;;;;;;;;;;;;;;;;;;5131992;27;19915;-84
2021/06/10 06:35:14;;;;;;;;;;;;;;;;;;5135584;27;19908;-79
2021/06/10 06:37:40;;;;;;;;;;;;;;;;;;5135478;27;19907;-83
2021/06/10 06:40:06;;;;;;;;;;;;;;;;;;5134799;27;19959;-83
2021/06/10 06:42:32;;;;;;;;;;;;;;;;;;5116872;27;19952;-81
2021/06/10 06:44:58;;;;;;;;;;;;;;;;;;5131488;27;19918;-83
2021/06/10 06:47:24;;;;;;;;;;;;;;;;;;5126115;27;19954;-80
2021/06/10 06:49:50;;;;;;;;;;;;;;;;;;5134493;27;19919;-80
2021/06/10 06:52:16;;;;;;;;;;;;;;;;;;5120180;27;19907;-79
2021/06/10 06:54:42;;;;;;;;;;;;;;;;;;5120990;27;19909;-84
2021/06/10 06:57:08;;;;;;;;;;;;;;;;;;5113780;28;19922;-81
2021/06/10 06:59:34;;;;;;;;;;;;;;;;;;5114102;28;19907;-81
2021/06/10 07:02:00;;;;;;;;;;;;;;;;;;5114517;28;20286;-79
2021/06/10 07:04:26;;;;;;;;;;;;;;;;;;5096054;28;19907;-77
2021/06/10 07:06:52;;;;;;;;;;;;;;;;;;5114396;28;19938;-84
2021/06/10 07:09:18;;;;;;;;;;;;;;;;;;5114121;28;19970;-77
2021/06/10 07:11:44;;;;;;;;;;;;;;;;;;5114128;28;19956;-76
2021/06/10 07:14:10;;;;;;;;;;;;;;;;;;5114370;28;20048;-79
2021/06/10 07:16:36;;;;;;;;;;;;;;;;;;5117375;27;19907;-77
2021/06/10 07:19:02;;;;;;;;;;;;;;;;;;5113916;28;19954;-81
2021/06/10 07:21:28;;;;;;;;;;;;;;;;;;5114194;28;19904;-83
2021/06/10 07:23:54;;;;;;;;;;;;;;;;;;5106287;27;19903;-82
2021/06/10 07:26:20;;;;;;;;;;;;;;;;;;5134421;27;19945;-82
2021/06/10 07:28:46;;;;;;;;;;;;;;;;;;5133060;27;19907;-85
2021/06/10 07:31:11;;;;;;;;;;;;;;;;;;5095694;28;19911;-82
2021/06/10 07:33:37;;;;;;;;;;;;;;;;;;5114053;28;19903;-84
2021/06/10 07:36:03;;;;;;;;;;;;;;;;;;5113417;28;20007;-82
2021/06/10 07:38:29;;;;;;;;;;;;;;;;;;5113729;28;19907;-81
2021/06/10 07:40:55;;;;;;;;;;;;;;;;;;5112378;28;19910;-79
2021/06/10 07:43:21;;;;;;;;;;;;;;;;;;5113885;28;19904;-80
2021/06/10 07:45:47;;;;;;;;;;;;;;;;;;5095354;28;20383;-85
2021/06/10 07:48:14;;;;;;;;;;;;;;;;;;5104657;27;20370;-84
2021/06/10 07:50:40;;;;;;;;;;;;;;;;;;5125093;27;19986;-81
2021/06/10 07:53:06;;;;;;;;;;;;;;;;;;5094567;28;20030;-80
2021/06/10 07:55:32;;;;;;;;;;;;;;;;;;5123272;27;19914;-81
2021/06/10 07:58:01;;;;;;;;;;;;;;;;;;5097173;28;20015;-81
2021/06/10 08:00:27;;;;;;;;;;;;;;;;;;5103285;28;19916;-81
2021/06/10 08:02:58;;;;;;;;;;;;;;;;;;5106244;28;19947;-82
2021/06/10 08:05:24;;;;;;;;;;;;;;;;;;5100820;28;19915;-79
2021/06/10 08:07:50;;;;;;;;;;;;;;;;;;5091203;28;20389;-79
2021/06/10 08:10:16;;;;;;;;;;;;;;;;;;5111364;28;20027;-79
2021/06/10 08:12:41;;;;;;;;;;;;;;;;;;5113794;28;20373;-81
2021/06/10 08:15:07;;;;;;;;;;;;;;;;;;5099431;28;20377;-85
2021/06/10 08:17:36;;;;;;;;;;;;;;;;;;5098162;28;20314;-83
2021/06/10 08:20:01;;;;;;;;;;;;;;;;;;5113040;28;20286;-86
2021/06/10 08:22:27;;;;;;;;;;;;;;;;;;5112454;28;19908;-84
2021/06/10 08:24:53;;;;;;;;;;;;;;;;;;5112967;28;20275;-82
2021/06/10 08:27:19;;;;;;;;;;;;;;;;;;5111558;28;19918;-82
2021/06/10 08:29:45;;;;;;;;;;;;;;;;;;5103148;28;19908;-80
2021/06/10 08:32:11;;;;;;;;;;;;;;;;;;5092510;28;19928;-80
2021/06/10 08:34:37;;;;;;;;;;;;;;;;;;5092680;28;19906;-80
2021/06/10 08:37:03;;;;;;;;;;;;;;;;;;5091832;28;19904;-78
2021/06/10 08:39:29;;;;;;;;;;;;;;;;;;5092656;28;19900;-82
2021/06/10 08:41:55;;;;;;;;;;;;;;;;;;5092401;28;19917;-81
2021/06/10 08:44:23;;;;;;;;;;;;;;;;;;5092648;28;19904;-84
2021/06/10 08:46:49;;;;;;;;;;;;;;;;;;5092554;28;19904;-82
2021/06/10 08:49:15;;;;;;;;;;;;;;;;;;5092180;28;19912;-82
2021/06/10 08:51:41;;;;;;;;;;;;;;;;;;5091138;28;20382;-86
2021/06/10 08:54:07;;;;;;;;;;;;;;;;;;5094497;28;19911;-84
2021/06/10 08:56:33;;;;;;;;;;;;;;;;;;5094800;28;20006;-81
2021/06/10 08:58:59;;;;;;;;;;;;;;;;;;5094959;28;20359;-78
2021/06/10 09:01:25;;;;;;;;;;;;;;;;;;5096069;28;19911;-83
2021/06/10 09:03:51;;;;;;;;;;;;;;;;;;5096535;28;19911;-80
2021/06/10 09:06:17;;;;;;;;;;;;;;;;;;5094422;28;19904;-83
2021/06/10 09:08:43;;;;;;;;;;;;;;;;;;5097195;28;20251;-79
2021/06/10 09:11:13;;;;;;;;;;;;;;;;;;5094590;28;19908;-83
2021/06/10 09:13:39;;;;;;;;;;;;;;;;;;5095462;28;19916;-78
2021/06/10 09:16:05;;;;;;;;;;;;;;;;;;5105590;28;19953;-82
2021/06/10 09:18:31;;;;;;;;;;;;;;;;;;5104804;28;19919;-81
2021/06/10 09:20:57;;;;;;;;;;;;;;;;;;5104616;28;19931;-79
2021/06/10 09:23:24;;;;;;;;;;;;;;;;;;5097570;28;19908;-83
2021/06/10 09:25:50;;;;;;;;;;;;;;;;;;5102215;28;19907;-88
2021/06/10 09:28:16;;;;;;;;;;;;;;;;;;5099485;28;20401;-82
2021/06/10 09:30:43;;;;;;;;;;;;;;;;;;5095478;28;19991;-80
2021/06/10 09:33:09;;;;;;;;;;;;;;;;;;5094507;28;20259;-79
2021/06/10 09:35:35;;;;;;;;;;;;;;;;;;5095664;28;19904;-80
2021/06/10 09:38:01;;;;;;;;;;;;;;;;;;5099999;28;19915;-79
2021/06/10 09:40:28;;;;;;;;;;;;;;;;;;5102984;28;19912;-82
2021/06/10 09:42:54;;;;;;;;;;;;;;;;;;5103177;28;19912;-81
2021/06/10 09:45:29;;;;;;;;;;;;;;;;;;5101018;28;19977;-88
2021/06/10 09:47:56;;;;;;;;;;;;;;;;;;5087855;28;19916;-80
2021/06/10 09:50:22;;;;;;;;;;;;;;;;;;5100616;28;19915;-82
2021/06/10 09:52:48;;;;;;;;;;;;;;;;;;5109399;28;19956;-79
2021/06/10 09:55:14;;;;;;;;;;;;;;;;;;5108960;28;20308;-79
2021/06/10 09:57:40;;;;;;;;;;;;;;;;;;5125115;27;19926;-79
2021/06/10 10:00:05;;;;;;;;;;;;;;;;;;5110565;27;19956;-82
2021/06/10 10:02:32;;;;;;;;;;;;;;;;;;5130976;27;19907;-81
2021/06/10 10:04:58;;;;;;;;;;;;;;;;;;5119455;27;19903;-83
2021/06/10 10:07:24;;;;;;;;;;;;;;;;;;5109422;27;19915;-79
2021/06/10 10:09:50;;;;;;;;;;;;;;;;;;5126973;27;19990;-82
2021/06/10 10:12:16;;;;;;;;;;;;;;;;;;5136114;27;19907;-77
2021/06/10 10:14:45;;;;;;;;;;;;;;;;;;5135419;27;19906;-83
2021/06/10 10:17:11;;;;;;;;;;;;;;;;;;5117462;27;19948;-85
2021/06/10 10:19:37;;;;;;;;;;;;;;;;;;5125725;27;19915;-80
2021/06/10 10:22:03;;;;;;;;;;;;;;;;;;5123781;27;19982;-79
2021/06/10 10:24:29;;;;;;;;;;;;;;;;;;5119014;27;19907;-84
2021/06/10 10:26:55;;;;;;;;;;;;;;;;;;5114966;28;20303;-87
2021/06/10 10:29:24;;;;;;;;;;;;;;;;;;5089825;28;19911;-86
2021/06/10 10:31:52;;;;;;;;;;;;;;;;;;5124603;27;19915;-83
2021/06/10 10:34:18;;;;;;;;;;;;;;;;;;5115105;28;19958;-82
2021/06/10 10:36:45;;;;;;;;;;;;;;;;;;5118331;27;19912;-82
2021/06/10 10:39:11;;;;;;;;;;;;;;;;;;5118137;27;19907;-81
2021/06/10 10:41:37;;;;;;;;;;;;;;;;;;5119268;27;19979;-84
2021/06/10 10:44:03;;;;;;;;;;;;;;;;;;5104479;27;19907;-81
2021/06/10 10:46:28;;;;;;;;;;;;;;;;;;5118183;27;19947;-79
2021/06/10 10:48:59;;;;;;;;;;;;;;;;;;5128268;27;19916;-83
2021/06/10 10:51:24;;;;;;;;;;;;;;;;;;5116808;27;19943;-80
2021/06/10 10:53:59;;;;;;;;;;;;;;;;;;5132257;27;19958;-79
2021/06/10 10:56:25;;;;;;;;;;;;;;;;;;5115021;27;19920;-80
2021/06/10 10:58:51;;;;;;;;;;;;;;;;;;5118300;27;19916;-80
2021/06/10 11:01:17;;;;;;;;;;;;;;;;;;5114648;28;19923;-83
2021/06/10 11:03:43;;;;;;;;;;;;;;;;;;5116804;27;19955;-82
2021/06/10 11:06:09;;;;;;;;;;;;;;;;;;5097437;27;20019;-78
2021/06/10 11:08:35;;;;;;;;;;;;;;;;;;5123750;27;20394;-79
2021/06/10 11:11:02;;;;;;;;;;;;;;;;;;5125921;27;20642;-81
2021/06/10 11:13:28;;;;;;;;;;;;;;;;;;5118450;27;20016;-83
2021/06/10 11:15:54;;;;;;;;;;;;;;;;;;5118190;27;20395;-79
2021/06/10 11:18:20;;;;;;;;;;;;;;;;;;5119105;27;19939;-80
2021/06/10 11:20:46;;;;;;;;;;;;;;;;;;5126132;27;19959;-83
2021/06/10 11:23:12;;;;;;;;;;;;;;;;;;5129809;27;19907;-83
2021/06/10 11:25:40;;;;;;;;;;;;;;;;;;5122182;27;20354;-82
2021/06/10 11:28:06;;;;;;;;;;;;;;;;;;5118045;27;19968;-81
2021/06/10 11:30:32;;;;;;;;;;;;;;;;;;5116632;27;19911;-83
2021/06/10 11:32:57;;;;;;;;;;;;;;;;;;5130093;27;20320;-80
2021/06/10 11:35:23;;;;;;;;;;;;;;;;;;5108092;27;19907;-80
2021/06/10 11:37:49;;;;;;;;;;;;;;;;;;5116270;27;19908;-81
2021/06/10 11:40:15;;;;;;;;;;;;;;;;;;5127422;27;19983;-80
2021/06/10 11:42:43;;;;;;;;;;;;;;;;;;5127924;27;19903;-84
2021/06/10 11:45:09;;;;;;;;;;;;;;;;;;5134606;27;19910;-80
2021/06/10 11:47:38;;;;;;;;;;;;;;;;;;5115395;27;19914;-84
2021/06/10 11:50:07;;;;;;;;;;;;;;;;;;5133747;27;20011;-87
2021/06/10 11:52:33;;;;;;;;;;;;;;;;;;5133956;27;19948;-84
2021/06/10 11:54:59;;;;;;;;;;;;;;;;;;5117415;27;19903;-84
2021/06/10 11:57:25;;;;;;;;;;;;;;;;;;5113017;28;19951;-84
2021/06/10 11:59:51;;;;;;;;;;;;;;;;;;5111864;28;19903;-82
2021/06/10 12:02:17;;;;;;;;;;;;;;;;;;5113790;28;20251;-84
2021/06/10 12:04:43;;;;;;;;;;;;;;;;;;5112259;28;19904;-83
2021/06/10 12:07:09;;;;;;;;;;;;;;;;;;5113177;28;19939;-82
2021/06/10 12:09:35;;;;;;;;;;;;;;;;;;5112889;28;19908;-81
2021/06/10 12:12:01;;;;;;;;;;;;;;;;;;5101719;28;19919;-86
2021/06/10 12:14:27;;;;;;;;;;;;;;;;;;5119319;27;20397;-81
2021/06/10 12:16:53;;;;;;;;;;;;;;;;;;5112908;28;19910;-83
2021/06/10 12:19:19;;;;;;;;;;;;;;;;;;5113050;28;19907;-84
2021/06/10 12:21:45;;;;;;;;;;;;;;;;;;5112983;28;19909;-86
2021/06/10 12:24:11;;;;;;;;;;;;;;;;;;5094330;28;20358;-84
2021/06/10 12:26:37;;;;;;;;;;;;;;;;;;5118055;28;20366;-79
2021/06/10 12:29:03;;;;;;;;;;;;;;;;;;5126053;27;19955;-84
2021/06/10 12:31:29;;;;;;;;;;;;;;;;;;5104546;27;19904;-83
2021/06/10 12:33:55;;;;;;;;;;;;;;;;;;5100896;28;20373;-83
2021/06/10 12:36:21;;;;;;;;;;;;;;;;;;5122571;27;19953;-83
2021/06/10 12:38:47;;;;;;;;;;;;;;;;;;5132760;27;19915;-82
2021/06/10 12:41:13;;;;;;;;;;;;;;;;;;5123895;27;19911;-84
2021/06/10 12:43:39;;;;;;;;;;;;;;;;;;5119660;27;19912;-83
2021/06/10 12:46:05;;;;;;;;;;;;;;;;;;5125044;27;19907;-80
2021/06/10 12:48:31;;;;;;;;;;;;;;;;;;5103535;27;19955;-81
2021/06/10 12:50:56;;;;;;;;;;;;;;;;;;5117846;27;20447;-82
2021/06/10 12:53:22;;;;;;;;;;;;;;;;;;5125416;27;19915;-81
2021/06/10 12:55:48;;;;;;;;;;;;;;;;;;5116805;27;19907;-79
2021/06/10 12:58:14;;;;;;;;;;;;;;;;;;5133950;27;19971;-83
2021/06/10 13:00:42;;;;;;;;;;;;;;;;;;5137460;27;19923;-83
2021/06/10 13:03:08;;;;;;;;;;;;;;;;;;5129116;27;20347;-80
2021/06/10 13:05:34;;;;;;;;;;;;;;;;;;5115280;27;19914;-82
2021/06/10 13:08:00;;;;;;;;;;;;;;;;;;5115976;27;19908;-85
2021/06/10 13:10:26;;;;;;;;;;;;;;;;;;5110267;28;20002;-79
2021/06/10 13:12:54;;;;;;;;;;;;;;;;;;5116697;28;19938;-82
2021/06/10 13:15:20;;;;;;;;;;;;;;;;;;5116276;28;19908;-81
2021/06/10 13:17:46;;;;;;;;;;;;;;;;;;5098526;28;20002;-86
2021/06/10 13:20:11;;;;;;;;;;;;;;;;;;5115548;28;19914;-82
2021/06/10 13:22:37;;;;;;;;;;;;;;;;;;5116398;28;19904;-82
2021/06/10 13:25:03;;;;;;;;;;;;;;;;;;5124247;27;19907;-80
2021/06/10 13:27:29;;;;;;;;;;;;;;;;;;5132671;27;19933;-85
2021/06/10 13:29:58;;;;;;;;;;;;;;;;;;5121084;27;19911;-82
2021/06/10 13:32:27;;;;;;;;;;;;;;;;;;5097851;28;19990;-81
2021/06/10 13:35:06;;;;;;;;;;;;;;;;;;5116591;28;19903;-83
2021/06/10 13:37:32;;;;;;;;;;;;;;;;;;5116124;28;20010;-81
2021/06/10 13:39:58;;;;;;;;;;;;;;;;;;5116488;28;20354;-83
2021/06/10 13:42:24;;;;;;;;;;;;;;;;;;5115949;28;19907;-84
2021/06/10 13:44:50;;;;;;;;;;;;;;;;;;5098064;28;19904;-82
2021/06/10 13:47:16;;;;;;;;;;;;;;;;;;5116009;28;20314;-78
2021/06/10 13:49:43;;;;;;;;;;;;;;;;;;5116309;28;19931;-83
2021/06/10 13:52:09;;;;;;;;;;;;;;;;;;5116051;28;19994;-86
2021/06/10 13:54:35;;;;;;;;;;;;;;;;;;5115968;28;19943;-82
2021/06/10 13:57:01;;;;;;;;;;;;;;;;;;5115527;28;19911;-81
2021/06/10 13:59:27;;;;;;;;;;;;;;;;;;5115755;28;19918;-86
2021/06/10 14:01:56;;;;;;;;;;;;;;;;;;5097910;28;19911;-85
2021/06/10 14:04:27;;;;;;;;;;;;;;;;;;5115644;28;19908;-82
2021/06/10 14:06:54;;;;;;;;;;;;;;;;;;5116082;28;20419;-83
2021/06/10 14:09:20;;;;;;;;;;;;;;;;;;5115486;28;19947;-83
2021/06/10 14:11:46;;;;;;;;;;;;;;;;;;5115740;28;19904;-85
2021/06/10 14:14:12;;;;;;;;;;;;;;;;;;5097452;28;19952;-86
2021/06/10 14:16:38;;;;;;;;;;;;;;;;;;5097214;28;19908;-82
2021/06/10 14:19:06;;;;;;;;;;;;;;;;;;5115827;28;19954;-79
2021/06/10 14:21:32;;;;;;;;;;;;;;;;;;5114967;28;19904;-82
2021/06/10 14:23:58;;;;;;;;;;;;;;;;;;5115606;28;19911;-83
2021/06/10 14:26:24;;;;;;;;;;;;;;;;;;5115233;28;20359;-80
2021/06/10 14:28:51;;;;;;;;;;;;;;;;;;5096946;28;19951;-82
2021/06/10 14:34:02;;;;;;;;;;;;;;;;;;5115356;28;19949;-82
2021/06/10 14:36:27;;;;;;;;;;;;;;;;;;5096681;28;19907;-82
2021/06/10 14:38:53;;;;;;;;;;;;;;;;;;5115099;28;19949;-84
2021/06/10 14:41:19;;;;;;;;;;;;;;;;;;5096800;28;19904;-87
2021/06/10 14:43:45;;;;;;;;;;;;;;;;;;5114503;28;19908;-81
2021/06/10 14:46:11;;;;;;;;;;;;;;;;;;5115109;28;20282;-83
2021/06/10 14:48:37;;;;;;;;;;;;;;;;;;5114825;28;20270;-85
2021/06/10 14:51:05;;;;;;;;;;;;;;;;;;5095968;28;19910;-85
2021/06/10 14:53:31;;;;;;;;;;;;;;;;;;5096406;28;19904;-81
2021/06/10 14:55:57;;;;;;;;;;;;;;;;;;5114821;28;19918;-84
2021/06/10 14:58:23;;;;;;;;;;;;;;;;;;5114254;28;19916;-76
2021/06/10 15:00:49;;;;;;;;;;;;;;;;;;5114509;28;19912;-80
2021/06/10 15:03:15;;;;;;;;;;;;;;;;;;5114725;28;19903;-80
2021/06/10 15:05:41;;;;;;;;;;;;;;;;;;5114602;28;19990;-81
2021/06/10 15:08:07;;;;;;;;;;;;;;;;;;5096005;28;19911;-80
2021/06/10 15:10:33;;;;;;;;;;;;;;;;;;5114582;28;19904;-85
2021/06/10 15:12:59;;;;;;;;;;;;;;;;;;5114449;28;20012;-82
2021/06/10 15:15:25;;;;;;;;;;;;;;;;;;5096184;28;19952;-85
2021/06/10 15:17:51;;;;;;;;;;;;;;;;;;5114163;28;19908;-85
2021/06/10 15:20:17;;;;;;;;;;;;;;;;;;5114397;28;19914;-79
2021/06/10 15:22:43;;;;;;;;;;;;;;;;;;5114172;28;20401;-84
2021/06/10 15:25:09;;;;;;;;;;;;;;;;;;5114152;28;20304;-82
2021/06/10 15:27:35;;;;;;;;;;;;;;;;;;5113472;28;19914;-80
2021/06/10 15:30:01;;;;;;;;;;;;;;;;;;5114357;28;19950;-83
2021/06/10 15:32:27;;;;;;;;;;;;;;;;;;5113746;28;19912;-83
2021/06/10 15:34:53;;;;;;;;;;;;;;;;;;5113983;28;19908;-83
2021/06/10 15:37:18;;;;;;;;;;;;;;;;;;5114200;28;19910;-83
2021/06/10 15:39:44;;;;;;;;;;;;;;;;;;5113848;28;19904;-84
2021/06/10 15:42:10;;;;;;;;;;;;;;;;;;5113967;28;19904;-82
2021/06/10 15:44:36;;;;;;;;;;;;;;;;;;5114036;28;19915;-81
2021/06/10 15:47:02;;;;;;;;;;;;;;;;;;5114007;28;19979;-83
2021/06/10 15:49:28;;;;;;;;;;;;;;;;;;5113856;28;19912;-82
2021/06/10 15:51:54;;;;;;;;;;;;;;;;;;5113694;28;19986;-84
2021/06/10 15:54:20;;;;;;;;;;;;;;;;;;5112573;28;19903;-83
2021/06/10 15:56:46;;;;;;;;;;;;;;;;;;5113294;28;20083;-83
2021/06/10 15:59:12;;;;;;;;;;;;;;;;;;5113721;28;19904;-80
2021/06/10 16:01:38;;;;;;;;;;;;;;;;;;5113157;28;20415;-81
2021/06/10 16:04:04;;;;;;;;;;;;;;;;;;5113300;28;19926;-84
2021/06/10 16:06:30;;;;;;;;;;;;;;;;;;5113787;28;19946;-85
2021/06/10 16:08:56;;;;;;;;;;;;;;;;;;5113496;28;19960;-81
2021/06/10 16:11:22;;;;;;;;;;;;;;;;;;5113598;28;19915;-82
2021/06/10 16:13:48;;;;;;;;;;;;;;;;;;5113402;28;19911;-81
2021/06/10 16:16:14;;;;;;;;;;;;;;;;;;5113457;28;19904;-80
2021/06/10 16:18:40;;;;;;;;;;;;;;;;;;5113658;28;20243;-80
2021/06/10 16:21:05;;;;;;;;;;;;;;;;;;5113403;28;19976;-79
2021/06/10 16:23:32;;;;;;;;;;;;;;;;;;5113503;28;19910;-83
2021/06/10 16:25:58;;;;;;;;;;;;;;;;;;5112125;28;19904;-85
2021/06/10 16:28:24;;;;;;;;;;;;;;;;;;5113222;28;19918;-84
2021/06/10 16:30:50;;;;;;;;;;;;;;;;;;5113241;28;19908;-82
2021/06/10 16:33:16;;;;;;;;;;;;;;;;;;5113357;28;20307;-80
2021/06/10 16:35:42;;;;;;;;;;;;;;;;;;5113355;28;20390;-82
2021/06/10 16:38:08;;;;;;;;;;;;;;;;;;5113037;28;19914;-83
2021/06/10 16:40:37;;;;;;;;;;;;;;;;;;5106839;28;19904;-89